Аэропорт: Шымкент. Шымкент

ICAO: UAII

METAR:
2019-07-24 01:00:00
UAII 240100Z 01002MPS 340V060 CAVOK 25/07 Q1006 R28/0///70 NOSIG RMK QFE718/0957
METAR:
2019-07-23 23:00:00
TAF UAII 232300Z 2400/2424 05003G08MPS CAVOK TX37/2410Z TN23/2401Z TEMPO 2400/2403 09005MPS TEMPO 2406/2418 35006G11MPS TEMPO 2418/2424 09005MPS